Time;durP1;ratioP1;P1;durP2;ratioP2;P2;SDS_P1;SDS_P2;PMS_P1;PMS_P2;Temp;Humidity;BMP_temperature;BMP_pressure;BME280_temperature;BME280_humidity;BME280_pressure;Samples;Min_cycle;Max_cycle;Signal;HPM_P1;HPM_P2
2022/10/24 00:00:17;;;;;;;5.97;2.60;;;14.60;99.90;;;;;;5032703;28;20026;-80
2022/10/24 00:02:43;;;;;;;13.73;2.75;;;14.60;99.90;;;;;;5034521;28;20044;-80
2022/10/24 00:05:12;;;;;;;7.25;2.90;;;14.60;99.90;;;;;;5033095;28;20501;-78
2022/10/24 00:07:37;;;;;;;8.13;3.08;;;14.60;99.90;;;;;;5034688;28;20122;-77
2022/10/24 00:10:04;;;;;;;7.93;3.40;;;14.60;99.90;;;;;;5033414;28;20560;-78
2022/10/24 00:12:29;;;;;;;5.43;3.05;;;14.50;99.90;;;;;;5031978;28;20026;-76
2022/10/24 00:14:55;;;;;;;14.15;2.80;;;14.50;99.90;;;;;;5033080;28;20043;-77
2022/10/24 00:17:21;;;;;;;10.95;2.60;;;14.50;99.90;;;;;;5033650;28;20119;-81
2022/10/24 00:19:46;;;;;;;5.72;2.60;;;14.50;99.90;;;;;;5034168;28;20021;-78
2022/10/24 00:22:12;;;;;;;5.93;2.85;;;14.50;99.90;;;;;;5034672;28;20034;-78
2022/10/24 00:24:37;;;;;;;10.57;3.22;;;14.50;99.90;;;;;;5034655;28;20033;-78
2022/10/24 00:27:03;;;;;;;7.20;3.10;;;14.50;99.90;;;;;;5033871;28;20097;-82
2022/10/24 00:29:29;;;;;;;6.95;2.80;;;14.50;99.90;;;;;;5034864;28;20073;-76
2022/10/24 00:31:54;;;;;;;4.65;2.63;;;14.50;99.90;;;;;;5035258;28;20034;-78
2022/10/24 00:34:29;;;;;;;9.63;3.00;;;14.40;99.90;;;;;;5033777;28;20056;-78
2022/10/24 00:36:55;;;;;;;4.95;2.65;;;14.40;99.90;;;;;;5030518;28;20032;-78
2022/10/24 00:39:21;;;;;;;8.27;3.08;;;14.40;99.90;;;;;;5032549;28;20057;-79
2022/10/24 00:41:46;;;;;;;4.78;2.60;;;14.40;99.90;;;;;;5033103;28;20056;-77
2022/10/24 00:44:22;;;;;;;5.88;2.50;;;14.30;99.90;;;;;;5035625;28;20021;-80
2022/10/24 00:46:51;;;;;;;6.88;2.60;;;14.30;99.90;;;;;;5034934;28;20117;-77
2022/10/24 00:49:24;;;;;;;10.57;3.00;;;14.30;99.90;;;;;;5033335;28;20137;-81
2022/10/24 00:52:01;;;;;;;13.95;2.85;;;14.20;99.90;;;;;;5033672;28;20029;-79
2022/10/24 00:54:27;;;;;;;5.38;2.42;;;14.20;99.90;;;;;;5054369;28;20101;-76
2022/10/24 00:57:04;;;;;;;7.25;2.90;;;14.20;99.90;;;;;;5037277;28;20052;-78
2022/10/24 00:59:32;;;;;;;6.97;2.75;;;14.20;99.90;;;;;;5038256;28;20040;-79
2022/10/24 01:01:58;;;;;;;8.48;2.63;;;14.20;99.90;;;;;;5038961;28;20025;-81
2022/10/24 01:04:23;;;;;;;10.30;2.65;;;14.20;99.90;;;;;;5038582;28;20021;-78
2022/10/24 01:07:23;;;;;;;8.93;2.22;;;14.20;99.90;;;;;;5038019;28;20041;-78
2022/10/24 01:10:20;;;;;;;7.25;3.00;;;14.20;99.90;;;;;;5037474;28;20439;-82
2022/10/24 01:13:24;;;;;;;4.88;2.28;;;14.20;99.90;;;;;;5038829;28;20037;-78
2022/10/24 01:15:50;;;;;;;12.35;3.35;;;14.20;99.90;;;;;;5011268;28;20049;-79
2022/10/24 01:18:23;;;;;;;10.48;2.95;;;14.20;99.90;;;;;;5037681;28;20097;-77
2022/10/24 01:20:56;;;;;;;8.68;2.58;;;14.20;99.90;;;;;;5037769;28;20088;-78
2022/10/24 01:23:43;;;;;;;9.23;2.80;;;14.20;99.90;;;;;;5037157;28;20025;-77
2022/10/24 01:26:32;;;;;;;6.18;2.97;;;14.20;99.90;;;;;;5037194;28;20021;-77
2022/10/24 01:29:15;;;;;;;9.13;2.90;;;14.20;99.90;;;;;;5043297;28;20033;-79
2022/10/24 01:31:52;;;;;;;8.52;3.00;;;14.20;99.90;;;;;;5054706;28;20088;-81
2022/10/24 01:34:32;;;;;;;8.82;2.95;;;14.20;99.90;;;;;;5055327;28;20033;-79
2022/10/24 01:37:18;;;;;;;8.75;3.08;;;14.30;99.90;;;;;;5036360;28;20060;-80
2022/10/24 01:39:48;;;;;;;5.25;3.10;;;14.30;99.90;;;;;;5055629;28;20063;-80
2022/10/24 01:42:18;;;;;;;8.02;2.60;;;14.30;99.90;;;;;;5055993;28;20033;-73
2022/10/24 01:44:50;;;;;;;7.22;2.97;;;14.30;99.90;;;;;;5055624;28;20095;-81
2022/10/24 01:47:20;;;;;;;9.60;3.17;;;14.30;99.90;;;;;;5038029;28;20037;-82
2022/10/24 01:49:53;;;;;;;10.50;2.83;;;14.30;99.90;;;;;;5039425;28;20104;-81
2022/10/24 01:52:20;;;;;;;7.47;2.97;;;14.40;99.90;;;;;;5056504;28;20029;-79
2022/10/24 01:54:47;;;;;;;8.15;2.40;;;14.40;99.90;;;;;;5054792;28;20058;-85
2022/10/24 01:57:13;;;;;;;13.02;2.88;;;14.40;99.90;;;;;;5036612;28;20036;-81
2022/10/24 01:59:42;;;;;;;5.78;2.67;;;14.40;99.90;;;;;;5035510;28;20029;-78
2022/10/24 02:02:25;;;;;;;7.93;3.00;;;14.30;99.90;;;;;;5036752;28;20037;-78
2022/10/24 02:05:11;;;;;;;7.80;2.58;;;14.30;99.90;;;;;;5036038;28;20086;-78
2022/10/24 02:07:42;;;;;;;9.98;2.92;;;14.30;99.90;;;;;;5036189;28;20041;-81
2022/10/24 02:10:24;;;;;;;10.82;2.42;;;14.30;99.90;;;;;;5037893;28;20049;-80
2022/10/24 02:12:56;;;;;;;8.90;3.00;;;14.20;99.90;;;;;;5035123;28;20025;-77
2022/10/24 02:15:26;;;;;;;4.90;2.20;;;14.30;99.90;;;;;;5042108;28;20025;-77
2022/10/24 02:17:53;;;;;;;7.90;2.75;;;14.20;99.90;;;;;;5035375;28;20033;-77
2022/10/24 02:20:34;;;;;;;17.92;3.00;;;14.20;99.90;;;;;;5052086;28;20025;-77
2022/10/24 02:23:25;;;;;;;6.78;3.10;;;14.20;99.90;;;;;;5052056;28;20039;-82
2022/10/24 02:25:55;;;;;;;5.53;2.95;;;14.20;99.90;;;;;;5034930;28;20020;-78
2022/10/24 02:28:24;;;;;;;9.30;2.42;;;14.20;99.90;;;;;;5058870;28;20052;-78
2022/10/24 02:30:56;;;;;;;9.35;2.95;;;14.20;99.90;;;;;;5034600;28;20029;-80
2022/10/24 02:33:24;;;;;;;6.88;2.80;;;14.20;99.90;;;;;;5036227;28;20132;-83
2022/10/24 02:35:51;;;;;;;4.35;2.53;;;14.20;99.90;;;;;;5052985;28;20028;-83
2022/10/24 02:38:25;;;;;;;9.73;2.97;;;14.20;99.90;;;;;;5034097;28;20096;-81
2022/10/24 02:40:53;;;;;;;4.93;2.47;;;14.20;99.90;;;;;;5034569;28;20229;-81
2022/10/24 02:43:20;;;;;;;8.75;3.05;;;14.20;99.90;;;;;;5034901;28;20033;-81
2022/10/24 02:45:49;;;;;;;6.70;2.90;;;14.20;99.90;;;;;;5052255;28;20487;-80
2022/10/24 02:48:18;;;;;;;5.95;2.75;;;14.20;99.90;;;;;;5017736;28;20053;-82
2022/10/24 02:50:44;;;;;;;8.25;2.83;;;14.20;99.90;;;;;;5033986;28;20040;-81
2022/10/24 02:53:14;;;;;;;14.27;2.60;;;14.20;99.90;;;;;;5030696;28;20402;-83
2022/10/24 02:55:40;;;;;;;10.52;2.85;;;14.20;99.90;;;;;;5031030;28;20120;-80
2022/10/24 02:58:12;;;;;;;5.05;2.55;;;14.20;99.90;;;;;;5029650;28;20050;-79
2022/10/24 03:00:37;;;;;;;9.20;3.22;;;14.20;99.90;;;;;;5029253;28;20033;-79
2022/10/24 03:03:03;;;;;;;4.95;2.80;;;14.20;99.90;;;;;;5030785;28;20072;-80
2022/10/24 03:05:29;;;;;;;8.10;3.05;;;14.20;99.90;;;;;;5031747;28;20022;-79
2022/10/24 03:07:54;;;;;;;5.28;2.92;;;14.20;99.90;;;;;;5028426;28;20037;-79
2022/10/24 03:10:20;;;;;;;7.95;3.25;;;14.10;99.90;;;;;;5030124;28;20021;-79
2022/10/24 03:12:46;;;;;;;21.00;3.70;;;14.10;99.90;;;;;;5030447;28;20017;-80
2022/10/24 03:15:12;;;;;;;7.25;3.22;;;14.10;99.90;;;;;;5031434;28;20022;-79
2022/10/24 03:17:38;;;;;;;13.43;3.00;;;14.00;99.90;;;;;;5030022;28;20080;-79
2022/10/24 03:20:04;;;;;;;8.00;3.05;;;14.00;99.90;;;;;;5030147;28;20032;-79
2022/10/24 03:22:30;;;;;;;12.98;2.90;;;14.00;99.90;;;;;;5030026;28;20108;-78
2022/10/24 03:24:55;;;;;;;8.27;2.70;;;14.00;99.90;;;;;;5030343;28;20058;-78
2022/10/24 03:27:25;;;;;;;10.05;3.10;;;13.90;99.90;;;;;;5029491;28;20050;-82
2022/10/24 03:29:50;;;;;;;6.55;2.60;;;13.90;99.90;;;;;;5031259;28;20036;-82
2022/10/24 03:32:16;;;;;;;4.97;3.00;;;13.90;99.90;;;;;;5033236;28;20045;-83
2022/10/24 03:34:42;;;;;;;8.45;3.15;;;13.90;99.90;;;;;;5034464;28;20112;-77
2022/10/24 03:37:08;;;;;;;12.50;3.55;;;13.80;99.90;;;;;;5035559;28;20037;-82
2022/10/24 03:39:33;;;;;;;10.90;3.13;;;13.80;99.90;;;;;;5035116;28;20088;-80
2022/10/24 03:41:59;;;;;;;7.75;3.30;;;13.80;99.90;;;;;;5035067;28;20033;-79
2022/10/24 03:44:25;;;;;;;9.32;2.92;;;13.80;99.90;;;;;;5034230;28;20029;-78
2022/10/24 03:46:50;;;;;;;12.73;3.03;;;13.80;99.90;;;;;;5034268;28;20179;-82
2022/10/24 03:49:16;;;;;;;4.63;2.30;;;13.80;99.90;;;;;;5033576;28;20097;-78
2022/10/24 03:51:42;;;;;;;6.93;2.95;;;13.80;99.90;;;;;;5034060;28;20039;-80
2022/10/24 03:54:08;;;;;;;12.73;3.55;;;13.80;99.90;;;;;;5033557;28;20052;-78
2022/10/24 03:56:33;;;;;;;11.30;3.10;;;13.80;99.90;;;;;;5032026;28;20038;-78
2022/10/24 03:58:59;;;;;;;11.02;3.42;;;13.70;99.90;;;;;;5032483;28;20034;-77
2022/10/24 04:01:25;;;;;;;9.77;3.60;;;13.70;99.90;;;;;;5032842;28;20037;-77
2022/10/24 04:03:50;;;;;;;12.25;3.28;;;13.70;99.90;;;;;;5033220;28;20034;-77
2022/10/24 04:06:16;;;;;;;15.43;3.53;;;13.70;99.90;;;;;;5033474;28;20085;-79
2022/10/24 04:08:42;;;;;;;10.65;3.40;;;13.70;99.90;;;;;;5033496;28;20026;-79
2022/10/24 04:11:07;;;;;;;12.32;3.28;;;13.70;99.90;;;;;;5032939;28;20037;-79
2022/10/24 04:13:34;;;;;;;10.43;3.75;;;13.70;99.90;;;;;;5033124;28;20029;-77
2022/10/24 04:16:00;;;;;;;10.20;3.38;;;13.70;99.90;;;;;;5032120;28;20052;-81
2022/10/24 04:18:25;;;;;;;12.25;3.40;;;13.60;99.90;;;;;;5032915;28;20093;-78
2022/10/24 04:20:51;;;;;;;13.63;3.40;;;13.60;99.90;;;;;;5034436;28;20041;-78
2022/10/24 04:23:17;;;;;;;14.43;2.95;;;13.60;99.90;;;;;;5034583;28;20041;-79
2022/10/24 04:25:43;;;;;;;9.30;3.47;;;13.60;99.90;;;;;;5034616;28;20026;-79
2022/10/24 04:28:08;;;;;;;10.82;3.67;;;13.60;99.90;;;;;;5033024;28;20048;-81
2022/10/24 04:30:34;;;;;;;15.18;3.50;;;13.60;99.90;;;;;;5032904;28;20026;-83
2022/10/24 04:32:59;;;;;;;9.00;3.75;;;13.50;99.90;;;;;;5033294;28;20021;-80
2022/10/24 04:35:25;;;;;;;14.50;3.88;;;13.60;99.90;;;;;;5032370;28;20026;-79
2022/10/24 04:37:51;;;;;;;8.07;2.90;;;13.60;99.90;;;;;;5031960;28;20036;-76
2022/10/24 04:40:17;;;;;;;12.38;3.78;;;13.50;99.90;;;;;;5034044;28;20026;-79
2022/10/24 04:42:43;;;;;;;7.78;3.30;;;13.50;99.90;;;;;;5033044;28;20033;-83
2022/10/24 04:45:09;;;;;;;11.65;3.10;;;13.60;99.90;;;;;;5032169;28;20033;-79
2022/10/24 04:47:35;;;;;;;7.00;3.13;;;13.50;99.90;;;;;;5032505;28;20050;-73
2022/10/24 04:50:00;;;;;;;9.32;3.20;;;13.50;99.90;;;;;;5033802;28;20103;-80
2022/10/24 04:52:26;;;;;;;12.30;3.30;;;13.50;99.90;;;;;;5032731;28;20134;-80
2022/10/24 04:54:53;;;;;;;14.48;3.65;;;13.50;99.90;;;;;;5043574;28;20111;-82
2022/10/24 04:57:19;;;;;;;14.55;3.47;;;13.50;99.90;;;;;;5024971;28;20030;-82
2022/10/24 04:59:44;;;;;;;6.90;2.80;;;13.50;99.90;;;;;;5024702;28;20032;-81
2022/10/24 05:02:10;;;;;;;10.15;3.30;;;13.50;99.90;;;;;;5043724;28;20046;-76
2022/10/24 05:04:35;;;;;;;13.20;3.65;;;13.60;99.90;;;;;;5025512;28;20046;-79
2022/10/24 05:07:01;;;;;;;16.73;3.20;;;13.60;99.90;;;;;;5042826;28;20056;-78
2022/10/24 05:09:27;;;;;;;14.35;3.40;;;13.60;99.90;;;;;;5025967;28;20031;-78
2022/10/24 05:11:56;;;;;;;13.23;3.75;;;13.60;99.90;;;;;;5025026;28;20026;-74
2022/10/24 05:14:23;;;;;;;11.55;3.33;;;13.70;99.90;;;;;;5043086;28;20025;-80
2022/10/24 05:16:49;;;;;;;12.73;3.38;;;13.70;99.90;;;;;;5024913;28;20047;-80
2022/10/24 05:19:15;;;;;;;13.77;3.33;;;13.70;99.90;;;;;;5023930;28;20029;-75
2022/10/24 05:21:41;;;;;;;8.52;3.35;;;13.70;99.90;;;;;;5041167;28;20040;-79
2022/10/24 05:24:07;;;;;;;17.08;3.22;;;13.70;99.90;;;;;;5024046;28;20033;-81
2022/10/24 05:26:33;;;;;;;10.13;3.20;;;13.80;99.90;;;;;;5042184;28;21139;-76
2022/10/24 05:28:59;;;;;;;10.88;3.45;;;13.80;99.90;;;;;;5042022;28;20022;-82
2022/10/24 05:31:25;;;;;;;13.63;3.35;;;13.80;99.90;;;;;;5042574;28;20057;-81
2022/10/24 05:33:50;;;;;;;10.27;3.58;;;13.80;99.90;;;;;;5023540;28;20030;-80
2022/10/24 05:36:16;;;;;;;13.63;2.78;;;13.80;99.90;;;;;;5042901;28;20048;-81
2022/10/24 05:38:44;;;;;;;10.85;3.28;;;13.80;99.90;;;;;;5024398;28;20097;-81
2022/10/24 05:41:10;;;;;;;12.20;3.22;;;13.80;99.90;;;;;;5023062;28;20486;-79
2022/10/24 05:43:36;;;;;;;14.50;3.67;;;13.80;99.90;;;;;;5042469;28;20563;-81
2022/10/24 05:46:01;;;;;;;12.25;3.85;;;13.80;99.90;;;;;;5024448;28;20032;-81
2022/10/24 05:48:27;;;;;;;11.90;3.65;;;13.70;99.90;;;;;;5023305;28;20045;-78
2022/10/24 05:50:57;;;;;;;10.45;3.20;;;13.70;99.90;;;;;;5024770;28;20381;-80
2022/10/24 05:53:25;;;;;;;10.73;3.13;;;13.70;99.90;;;;;;5022165;28;20041;-81
2022/10/24 05:55:50;;;;;;;11.25;3.67;;;13.70;99.90;;;;;;5031996;28;20506;-82
2022/10/24 05:58:21;;;;;;;10.70;3.70;;;13.60;99.90;;;;;;5032108;28;20026;-81
2022/10/24 06:00:48;;;;;;;8.27;3.45;;;13.60;99.90;;;;;;5030939;28;20029;-82
2022/10/24 06:03:14;;;;;;;14.85;3.45;;;13.60;99.90;;;;;;5034941;28;20038;-77
2022/10/24 06:05:39;;;;;;;17.13;3.22;;;13.60;99.90;;;;;;5032150;28;20135;-81
2022/10/24 06:08:06;;;;;;;11.10;3.13;;;13.50;99.90;;;;;;5030379;28;20048;-78
2022/10/24 06:10:32;;;;;;;11.73;3.58;;;13.50;99.90;;;;;;5032967;28;20034;-80
2022/10/24 06:12:58;;;;;;;6.32;3.42;;;13.50;99.90;;;;;;5031533;28;20026;-80
2022/10/24 06:15:23;;;;;;;15.13;3.90;;;13.50;99.90;;;;;;5034569;28;20085;-77
2022/10/24 06:17:50;;;;;;;6.32;3.05;;;13.50;99.90;;;;;;5033127;28;20098;-79
2022/10/24 06:20:15;;;;;;;14.30;4.20;;;13.50;99.90;;;;;;5033989;28;20033;-81
2022/10/24 06:22:44;;;;;;;14.18;3.80;;;13.50;99.90;;;;;;5030009;28;20049;-79
2022/10/24 06:25:13;;;;;;;12.02;3.30;;;13.50;99.90;;;;;;5029890;28;20128;-80
2022/10/24 06:27:39;;;;;;;16.33;3.70;;;13.40;99.90;;;;;;5030633;28;20053;-80
2022/10/24 06:30:06;;;;;;;7.57;3.30;;;13.40;99.90;;;;;;5029503;28;20057;-81
2022/10/24 06:32:32;;;;;;;8.18;3.63;;;13.40;99.90;;;;;;5031834;28;20115;-79
2022/10/24 06:34:57;;;;;;;7.88;3.35;;;13.40;99.90;;;;;;5033241;28;20029;-80
2022/10/24 06:37:23;;;;;;;16.23;3.63;;;13.40;99.90;;;;;;5032426;28;20024;-76
2022/10/24 06:39:48;;;;;;;13.38;4.07;;;13.40;99.90;;;;;;5033825;28;20032;-81
2022/10/24 06:42:14;;;;;;;9.88;3.15;;;13.40;99.90;;;;;;5028490;28;20244;-81
2022/10/24 06:44:40;;;;;;;9.20;3.53;;;13.40;99.90;;;;;;5034182;28;20450;-80
2022/10/24 06:47:06;;;;;;;13.57;3.40;;;13.30;99.90;;;;;;5032244;28;20041;-83
2022/10/24 06:49:32;;;;;;;7.13;3.30;;;13.30;99.90;;;;;;5034573;28;20028;-81
2022/10/24 06:51:57;;;;;;;13.60;3.47;;;13.30;99.90;;;;;;5031360;28;20079;-80
2022/10/24 06:54:23;;;;;;;8.23;3.25;;;13.30;99.90;;;;;;5029106;28;20053;-81
2022/10/24 06:56:48;;;;;;;11.40;3.42;;;13.30;99.90;;;;;;5029693;28;20068;-82
2022/10/24 06:59:17;;;;;;;11.25;3.90;;;13.30;99.90;;;;;;5029473;28;20030;-81
2022/10/24 07:01:43;;;;;;;13.23;3.63;;;13.30;99.90;;;;;;5033594;28;20032;-83
2022/10/24 07:04:09;;;;;;;9.90;3.40;;;13.30;99.90;;;;;;5035587;28;20032;-81
2022/10/24 07:06:35;;;;;;;11.60;3.30;;;13.30;99.90;;;;;;5029922;28;20041;-80
2022/10/24 07:09:03;;;;;;;14.70;3.83;;;13.40;99.90;;;;;;5034857;28;20104;-81
2022/10/24 07:11:29;;;;;;;8.63;3.42;;;13.40;99.90;;;;;;5031768;28;20026;-80
2022/10/24 07:13:55;;;;;;;13.27;3.70;;;13.40;99.90;;;;;;5030885;28;20037;-81
2022/10/24 07:16:21;;;;;;;10.18;3.45;;;13.40;99.90;;;;;;5032198;28;20017;-81
2022/10/24 07:18:47;;;;;;;14.10;3.47;;;13.40;99.90;;;;;;5033156;28;20041;-81
2022/10/24 07:21:17;;;;;;;19.95;3.53;;;13.50;99.90;;;;;;5030164;28;20032;-81
2022/10/24 07:23:42;;;;;;;11.40;3.17;;;13.60;99.90;;;;;;5031628;28;20029;-80
2022/10/24 07:26:12;;;;;;;12.73;3.42;;;13.70;99.90;;;;;;5033757;28;20580;-81
2022/10/24 07:28:38;;;;;;;15.85;3.40;;;13.80;99.90;;;;;;5034338;28;20041;-81
2022/10/24 07:31:05;;;;;;;12.85;3.40;;;14.00;99.90;;;;;;5028560;28;20582;-81
2022/10/24 07:33:31;;;;;;;5.38;2.58;;;14.10;99.90;;;;;;5031851;28;20037;-81
2022/10/24 07:35:57;;;;;;;7.60;3.17;;;14.30;99.90;;;;;;5033082;28;20037;-79
2022/10/24 07:38:26;;;;;;;12.70;2.85;;;14.40;99.90;;;;;;5032431;28;20034;-79
2022/10/24 07:40:52;;;;;;;8.40;2.50;;;14.60;99.90;;;;;;5031026;28;20163;-76
2022/10/24 07:43:17;;;;;;;6.63;2.60;;;14.80;99.90;;;;;;5031986;28;20049;-78
2022/10/24 07:45:44;;;;;;;11.27;3.00;;;15.00;99.90;;;;;;5030116;28;20044;-76
2022/10/24 07:48:10;;;;;;;10.15;2.70;;;15.00;99.90;;;;;;5032165;28;20040;-75
2022/10/24 07:50:42;;;;;;;9.25;2.50;;;15.20;99.90;;;;;;5035367;28;20534;-78
2022/10/24 07:53:08;;;;;;;6.97;2.53;;;15.40;99.90;;;;;;5029459;28;20054;-79
2022/10/24 07:55:37;;;;;;;14.32;2.60;;;15.40;99.90;;;;;;5033441;28;20543;-72
2022/10/24 07:58:03;;;;;;;15.35;2.33;;;15.60;99.90;;;;;;5031359;28;20025;-75
2022/10/24 08:00:29;;;;;;;10.77;2.63;;;15.70;99.90;;;;;;5034218;28;20048;-80
2022/10/24 08:02:54;;;;;;;7.55;2.70;;;15.80;99.90;;;;;;5029273;28;20488;-71
2022/10/24 08:05:20;;;;;;;21.48;2.53;;;15.90;99.90;;;;;;5029714;28;20049;-73
2022/10/24 08:07:46;;;;;;;9.90;2.40;;;16.00;99.90;;;;;;5030728;28;20042;-74
2022/10/24 08:10:12;;;;;;;8.90;2.20;;;16.00;99.90;;;;;;5029972;28;20610;-80
2022/10/24 08:12:39;;;;;;;8.85;2.50;;;16.10;99.90;;;;;;5030947;28;20022;-71
2022/10/24 08:15:05;;;;;;;9.90;2.33;;;16.10;99.90;;;;;;5035261;28;20034;-86
2022/10/24 08:17:31;;;;;;;11.27;2.22;;;16.00;99.90;;;;;;5032909;28;20037;-76
2022/10/24 08:19:56;;;;;;;13.55;2.90;;;16.00;99.90;;;;;;5034492;28;20053;-77
2022/10/24 08:22:22;;;;;;;13.57;2.20;;;16.00;99.90;;;;;;5032984;28;20057;-73
2022/10/24 08:24:48;;;;;;;8.43;2.03;;;15.90;99.90;;;;;;5037502;28;20025;-74
2022/10/24 08:27:14;;;;;;;8.20;2.47;;;16.00;99.90;;;;;;5035908;28;20041;-81
2022/10/24 08:29:40;;;;;;;7.75;2.50;;;16.00;99.90;;;;;;5033603;28;20044;-76
2022/10/24 08:32:05;;;;;;;16.25;2.47;;;16.10;99.90;;;;;;5035146;28;20114;-74
2022/10/24 08:34:32;;;;;;;12.80;2.15;;;16.30;99.90;;;;;;5035601;28;20377;-77
2022/10/24 08:36:58;;;;;;;16.33;2.08;;;16.50;99.90;;;;;;5034762;28;20029;-71
2022/10/24 08:39:24;;;;;;;7.47;2.08;;;16.60;99.90;;;;;;5035624;28;20025;-75
2022/10/24 08:41:54;;;;;;;11.52;2.20;;;16.70;99.90;;;;;;5038289;28;20030;-84
2022/10/24 08:44:30;;;;;;;8.43;2.25;;;16.80;99.90;;;;;;5033833;28;20037;-79
2022/10/24 08:47:09;;;;;;;10.20;2.08;;;16.80;99.90;;;;;;5035682;28;20044;-76
2022/10/24 08:49:54;;;;;;;9.30;2.35;;;16.90;99.90;;;;;;5036775;28;20034;-77
2022/10/24 08:52:22;;;;;;;13.82;2.00;;;17.00;99.90;;;;;;5032883;28;20030;-82
2022/10/24 08:54:53;;;;;;;9.60;2.08;;;17.00;99.90;;;;;;5031607;28;20461;-74
2022/10/24 08:57:26;;;;;;;5.13;1.80;;;17.10;99.90;;;;;;5032986;28;20044;-74
2022/10/24 08:59:57;;;;;;;5.93;1.92;;;17.20;99.90;;;;;;5037926;28;20033;-75
2022/10/24 09:02:25;;;;;;;6.68;1.85;;;17.20;99.90;;;;;;5033218;28;20056;-71
2022/10/24 09:05:01;;;;;;;3.97;1.55;;;17.20;99.90;;;;;;5037619;28;20037;-73
2022/10/24 09:07:28;;;;;;;6.82;2.17;;;17.30;99.90;;;;;;5037308;28;20041;-75
2022/10/24 09:10:13;;;;;;;9.23;1.70;;;17.40;99.90;;;;;;5036702;28;20029;-84
2022/10/24 09:12:39;;;;;;;3.30;1.48;;;17.40;99.90;;;;;;5037031;28;20029;-77
2022/10/24 09:15:19;;;;;;;8.25;1.63;;;17.50;99.90;;;;;;5031930;28;20109;-75
2022/10/24 09:17:47;;;;;;;9.05;1.95;;;17.60;99.90;;;;;;5032013;28;20064;-77
2022/10/24 09:20:27;;;;;;;7.93;1.73;;;17.70;99.90;;;;;;5035675;28;20061;-76
2022/10/24 09:22:56;;;;;;;7.72;1.73;;;17.80;99.90;;;;;;5035437;28;20029;-73
2022/10/24 09:25:28;;;;;;;5.93;1.70;;;17.80;99.90;;;;;;5035468;28;20037;-77
2022/10/24 09:27:55;;;;;;;5.20;1.67;;;17.90;99.90;;;;;;5034717;28;20042;-76
2022/10/24 09:30:26;;;;;;;11.63;1.88;;;17.90;99.90;;;;;;5035469;28;20034;-79
2022/10/24 09:32:57;;;;;;;4.47;1.15;;;17.90;99.90;;;;;;5035485;28;20049;-74
2022/10/24 09:35:25;;;;;;;8.13;1.58;;;17.90;99.90;;;;;;5036906;28;20025;-72
2022/10/24 09:37:57;;;;;;;7.93;1.73;;;18.00;99.90;;;;;;5035308;28;20029;-76
2022/10/24 09:40:29;;;;;;;7.25;1.40;;;18.00;99.90;;;;;;5035049;28;20048;-77
2022/10/24 09:42:57;;;;;;;8.90;1.70;;;18.10;99.90;;;;;;5035373;28;20043;-77
2022/10/24 09:45:38;;;;;;;4.80;1.30;;;18.10;99.90;;;;;;5032559;28;20565;-79
2022/10/24 09:48:18;;;;;;;9.45;1.60;;;18.20;99.90;;;;;;5035911;28;20494;-70
2022/10/24 09:50:47;;;;;;;7.35;1.73;;;18.20;99.90;;;;;;5034562;28;20024;-74
2022/10/24 09:53:31;;;;;;;10.15;2.00;;;18.20;99.90;;;;;;5038240;28;20053;-77
2022/10/24 09:56:16;;;;;;;6.70;1.90;;;18.20;99.90;;;;;;5054056;28;20505;-75
2022/10/24 09:58:42;;;;;;;3.67;1.35;;;18.30;99.90;;;;;;5039465;28;20040;-77
2022/10/24 10:01:21;;;;;;;8.80;1.50;;;18.30;99.90;;;;;;5037796;28;20028;-76
2022/10/24 10:04:05;;;;;;;6.65;1.80;;;18.30;99.90;;;;;;5055530;28;20112;-73
2022/10/24 10:06:32;;;;;;;8.93;3.00;;;18.20;99.90;;;;;;5054063;28;20087;-71
2022/10/24 10:08:58;;;;;;;8.27;1.67;;;18.10;99.90;;;;;;5053931;28;20256;-75
2022/10/24 10:11:30;;;;;;;9.50;2.42;;;18.10;99.90;;;;;;5053619;28;20033;-77
2022/10/24 10:13:58;;;;;;;10.95;6.60;;;18.10;99.90;;;;;;5054517;28;20033;-70
2022/10/24 10:16:32;;;;;;;11.45;2.22;;;18.20;99.90;;;;;;5053575;28;20022;-77
2022/10/24 10:19:15;;;;;;;12.80;1.90;;;18.20;99.90;;;;;;5053977;28;20040;-74
2022/10/24 10:21:54;;;;;;;7.37;1.90;;;18.40;99.90;;;;;;5036986;28;20100;-74
2022/10/24 10:24:44;;;;;;;12.40;2.17;;;18.40;99.90;;;;;;5037131;28;20037;-73
2022/10/24 10:27:32;;;;;;;6.85;1.55;;;18.40;99.90;;;;;;5055396;28;20033;-76
2022/10/24 10:30:15;;;;;;;6.43;2.00;;;18.40;99.90;;;;;;5053837;28;20021;-74
2022/10/24 10:32:41;;;;;;;8.00;1.83;;;18.40;99.90;;;;;;5052273;28;20052;-75
2022/10/24 10:35:19;;;;;;;8.57;1.70;;;18.40;99.90;;;;;;5053288;28;20025;-75
2022/10/24 10:38:17;;;;;;;8.18;1.80;;;18.30;99.90;;;;;;5034212;28;20026;-77
2022/10/24 10:40:59;;;;;;;7.35;1.45;;;18.30;99.90;;;;;;5033954;28;20029;-72
2022/10/24 10:43:45;;;;;;;11.55;2.35;;;18.20;99.90;;;;;;5056276;28;20029;-74
2022/10/24 10:46:28;;;;;;;7.10;1.92;;;18.20;99.90;;;;;;5053666;28;20028;-78
2022/10/24 10:49:02;;;;;;;9.38;1.55;;;18.10;99.90;;;;;;5051140;28;20032;-74
2022/10/24 10:51:40;;;;;;;5.93;1.42;;;18.00;99.90;;;;;;5041788;28;20116;-77
2022/10/24 10:54:06;;;;;;;6.15;1.60;;;18.00;99.90;;;;;;5053326;28;20053;-75
2022/10/24 10:56:50;;;;;;;11.40;1.35;;;18.00;99.90;;;;;;5051167;28;20036;-73
2022/10/24 10:59:54;;;;;;;6.25;1.65;;;18.00;99.90;;;;;;5033906;28;20127;-71
2022/10/24 11:02:37;;;;;;;8.20;1.40;;;17.90;99.90;;;;;;5051550;28;20029;-74
2022/10/24 11:05:25;;;;;;;6.97;1.95;;;17.90;99.90;;;;;;5033341;28;20477;-75
2022/10/24 11:08:06;;;;;;;6.13;2.03;;;17.90;99.90;;;;;;5051752;28;20497;-75
2022/10/24 11:10:46;;;;;;;6.78;2.08;;;17.90;99.90;;;;;;5051212;28;20060;-77
2022/10/24 11:13:34;;;;;;;11.38;1.90;;;18.00;99.90;;;;;;5052988;28;20062;-70
2022/10/24 11:16:04;;;;;;;9.95;1.83;;;18.10;99.90;;;;;;5052572;28;20032;-74
2022/10/24 11:18:33;;;;;;;9.45;1.58;;;18.20;99.90;;;;;;5035354;28;20033;-72
2022/10/24 11:21:10;;;;;;;6.97;1.52;;;18.30;99.90;;;;;;5051553;28;20101;-74
2022/10/24 11:24:04;;;;;;;6.43;1.55;;;18.30;99.90;;;;;;5052300;28;20031;-74
2022/10/24 11:26:32;;;;;;;17.20;1.67;;;18.20;99.90;;;;;;5051508;28;20056;-74
2022/10/24 11:29:13;;;;;;;4.95;1.33;;;18.20;99.90;;;;;;5053097;28;20147;-71
2022/10/24 11:32:19;;;;;;;4.60;1.33;;;18.00;99.90;;;;;;5052491;28;20044;-77
2022/10/24 11:34:50;;;;;;;7.10;1.45;;;18.00;99.90;;;;;;5052777;28;20040;-73
2022/10/24 11:37:30;;;;;;;6.95;1.60;;;17.90;99.90;;;;;;5054723;28;20093;-73
2022/10/24 11:40:11;;;;;;;8.52;1.85;;;17.80;99.90;;;;;;5051788;28;20085;-72
2022/10/24 11:42:46;;;;;;;6.07;1.15;;;17.70;99.90;;;;;;5050988;28;20024;-71
2022/10/24 11:45:21;;;;;;;5.50;1.58;;;17.60;99.90;;;;;;5035377;28;20105;-74
2022/10/24 11:47:52;;;;;;;8.60;1.88;;;17.60;99.90;;;;;;5051822;28;20037;-77
2022/10/24 11:50:44;;;;;;;7.25;1.65;;;17.50;99.90;;;;;;5051137;28;20017;-76
2022/10/24 11:53:39;;;;;;;15.63;2.17;;;17.70;99.90;;;;;;5024762;28;20052;-74
2022/10/24 11:56:16;;;;;;;;;;;17.90;99.90;;;;;;5024768;28;20174;-72
2022/10/24 11:59:00;;;;;;;10.77;2.00;;;18.20;99.90;;;;;;5036319;28;19983;-70
2022/10/24 12:01:38;;;;;;;13.53;2.00;;;18.70;99.90;;;;;;5036053;28;20065;-77
2022/10/24 12:04:15;;;;;;;12.55;2.17;;;19.00;99.90;;;;;;5036338;28;20072;-75
2022/10/24 12:06:53;;;;;;;8.48;1.55;;;19.00;99.90;;;;;;5035489;28;20056;-74
2022/10/24 12:10:13;;;;;;;7.45;1.73;;;18.90;99.90;;;;;;5034540;28;20084;-77
2022/10/24 12:13:07;;;;;;;10.05;1.67;;;18.80;99.90;;;;;;5014555;28;20050;-73
2022/10/24 12:15:58;;;;;;;9.65;2.03;;;18.60;99.90;;;;;;5036827;28;20037;-71
2022/10/24 12:18:34;;;;;;;9.52;1.77;;;18.60;99.90;;;;;;5040829;28;20029;-73
2022/10/24 12:21:06;;;;;;;7.03;1.20;;;18.60;99.90;;;;;;5036078;28;20157;-73
2022/10/24 12:23:33;;;;;;;7.38;1.52;;;18.50;99.90;;;;;;5034722;28;20030;-73
2022/10/24 12:26:17;;;;;;;11.32;1.73;;;18.40;99.90;;;;;;5033914;28;20022;-74
2022/10/24 12:29:03;;;;;;;;;;;18.30;99.90;;;;;;5035027;28;20041;-73
2022/10/24 12:31:35;;;;;;;7.30;1.30;;;18.20;99.90;;;;;;5033551;28;19909;-73
2022/10/24 12:34:17;;;;;;;6.82;1.88;;;18.20;99.90;;;;;;5034070;28;20026;-72
2022/10/24 12:37:02;;;;;;;6.63;1.60;;;18.20;99.90;;;;;;5024114;28;20114;-75
2022/10/24 12:39:33;;;;;;;6.10;1.50;;;18.30;99.90;;;;;;5034030;28;20026;-76
2022/10/24 12:41:59;;;;;;;8.65;1.65;;;18.70;99.90;;;;;;5023580;28;20138;-76
2022/10/24 12:44:30;;;;;;;6.00;1.45;;;18.80;99.90;;;;;;5034238;28;20466;-76
2022/10/24 12:46:56;;;;;;;10.98;1.50;;;18.80;99.90;;;;;;5034362;28;20061;-71
2022/10/24 12:49:27;;;;;;;10.48;1.50;;;19.00;99.90;;;;;;5033206;28;20022;-77
2022/10/24 12:51:53;;;;;;;13.82;2.03;;;19.20;99.90;;;;;;5033873;28;20024;-74
2022/10/24 12:54:39;;;;;;;3.97;1.58;;;19.20;99.90;;;;;;5047296;28;20041;-74
2022/10/24 12:57:04;;;;;;;5.95;1.40;;;19.10;99.90;;;;;;5053083;28;20017;-74
2022/10/24 12:59:32;;;;;;;9.45;1.45;;;19.00;99.90;;;;;;5035479;28;20032;-72
2022/10/24 13:02:19;;;;;;;17.55;1.80;;;19.00;99.90;;;;;;5035839;28;20025;-72